Thunder radar more information blitzortung!


Radar de pluja more information rain snow radar


Visita la nostra xarxa de llocs de meteo:

Template documentation
and downloads

And another site



No particular awareness of the weather is required.    There are no Weather-warnings

Pagina Historial Weather Underground text

Diari Resum Octubre 6, 2017 Unitats:  Imperial    Mètric   Tant
« Previous Dia
SegĂźent Dia »
Diari Setmana Mensual Anual Personalitzada
  Maxima: Minima: Media:
Temperatura: TemperatureC °F 15.9 °F 21.5 °F
Punt de rosada: DewpointC °F 13.0 °F 15.3 °F
Humitat: Humidity % 41 % 69 %
Wind Speed: WindSpeedKMH mph 0.0 mph 5.5 mph
RĂ fegues de vent: WindSpeedGustKMH mph - -
Vent:- - SE
Pression baro: PressurehPa in 1016.8 in -
Precipitacions: 0.0 in    
Historical Graphs
 
 
Dades de taula per Octubre 6, 2017
Temps Temperatura Punt de rosada Pression baro Vent Wind Speed RĂ fegues de vent Humitat Rainfall Rate (Hourly)
TemperatureC °F DewpointC °F PressurehPa in Calm     Humidity % HourlyPrecipMM in
00:00 18.4 °F 16.2 °F 1017.8 in Calm   3.2 mph 87 % 0.0 in
00:04 19.8 °F 17.2 °F 1018.8 in West 5.0 mph 5.0 mph 85 % 0.0 in
00:09 19.8 °F 17.2 °F 1018.8 in WSW 5.6 mph 5.6 mph 85 % 0.0 in
00:10 18.3 °F 16.1 °F 1017.8 in NNE 1.6 mph 3.2 mph 87 % 0.0 in
00:14 19.8 °F 17.2 °F 1017.8 in West 4.2 mph 4.2 mph 85 % 0.0 in
00:20 18.2 °F 16.0 °F 1017.8 in Calm   3.2 mph 87 % 0.0 in
00:30 18.0 °F 15.8 °F 1017.8 in Calm   1.6 mph 87 % 0.0 in
00:40 17.9 °F 15.9 °F 1017.8 in Calm   1.6 mph 88 % 0.0 in
00:50 17.8 °F 15.8 °F 1017.8 in Calm   3.2 mph 88 % 0.0 in
01:00 17.6 °F 15.4 °F 1017.8 in NNE 1.6 mph 3.2 mph 87 % 0.0 in
01:10 17.5 °F 15.3 °F 1017.8 in NNW 1.6 mph 6.4 mph 87 % 0.0 in
01:20 17.3 °F 15.3 °F 1017.8 in WNW 1.6 mph 3.2 mph 88 % 0.0 in
01:30 17.2 °F 15.2 °F 1016.8 in WSW 1.6 mph 3.2 mph 88 % 0.0 in
01:40 17.1 °F 15.1 °F 1016.8 in SW 1.6 mph 1.6 mph 88 % 0.0 in
01:50 17.0 °F 15.2 °F 1017.8 in SW 3.2 mph 4.8 mph 89 % 0.0 in
02:00 17.0 °F 15.3 °F 1017.8 in Calm   3.2 mph 90 % 0.0 in
02:10 16.8 °F 15.2 °F 1017.8 in Calm   1.6 mph 90 % 0.0 in
02:20 16.4 °F 14.6 °F 1017.8 in Calm     89 % 0.0 in
02:30 16.3 °F 14.5 °F 1017.8 in Calm   1.6 mph 89 % 0.0 in
02:40 15.9 °F 14.1 °F 1017.8 in Calm   4.8 mph 89 % 0.0 in
02:50 16.0 °F 14.2 °F 1017.8 in Calm   1.6 mph 89 % 0.0 in
03:00 15.9 °F 14.1 °F 1017.8 in Calm     89 % 0.0 in
03:10 15.9 °F 13.9 °F 1017.8 in Calm     88 % 0.0 in
03:20 16.0 °F 14.0 °F 1017.8 in WNW 1.6 mph 1.6 mph 88 % 0.0 in
03:30 16.1 °F 13.9 °F 1017.8 in Calm   3.2 mph 87 % 0.0 in
03:40 16.6 °F 14.4 °F 1017.8 in North 3.2 mph 4.8 mph 87 % 0.0 in
03:50 17.2 °F 14.7 °F 1017.8 in NE 3.2 mph 3.2 mph 85 % 0.0 in
04:00 17.4 °F 14.5 °F 1017.8 in Calm   1.6 mph 83 % 0.0 in
04:10 17.4 °F 14.5 °F 1017.8 in Calm   3.2 mph 83 % 0.0 in
04:20 18.0 °F 14.9 °F 1017.8 in West 1.6 mph 3.2 mph 82 % 0.0 in
04:30 18.9 °F 15.2 °F 1017.8 in Calm   1.6 mph 79 % 0.0 in
04:40 19.1 °F 14.9 °F 1017.8 in West 1.6 mph 3.2 mph 77 % 0.0 in
04:50 19.5 °F 15.2 °F 1017.8 in Calm   3.2 mph 76 % 0.0 in
05:00 20.4 °F 15.6 °F 1017.8 in South 1.6 mph 3.2 mph 74 % 0.0 in
05:20 20.5 °F 15.3 °F 1018.8 in NE 3.2 mph 4.8 mph 72 % 0.0 in
05:30 20.4 °F 14.3 °F 1018.8 in ENE 3.2 mph 8.0 mph 68 % 0.0 in
05:40 21.0 °F 15.1 °F 1018.8 in Calm   3.2 mph 69 % 0.0 in
10:44 21.1 °F 15.2 °F 1018.8 in West 5.6 mph 5.6 mph 69 % 0.0 in
10:45 21.2 °F 15.3 °F 1018.8 in WSW 5.6 mph 5.6 mph 69 % 0.0 in
10:47 21.2 °F 15.3 °F 1018.8 in WNW 3.7 mph   69 % 0.0 in
10:52 21.4 °F 15.2 °F 1018.8 in ENE 3.7 mph 3.7 mph 68 % 0.0 in
10:57 21.2 °F 14.6 °F 1018.8 in NNE 7.4 mph 7.4 mph 66 % 0.0 in
11:02 21.4 °F 15.0 °F 1018.8 in ENE 5.6 mph 6.1 mph 67 % 0.0 in
11:07 21.4 °F 14.6 °F 1018.8 in East 5.6 mph 5.6 mph 65 % 0.0 in
11:12 21.4 °F 14.6 °F 1018.8 in NE 5.6 mph 6.9 mph 65 % 0.0 in
11:17 21.6 °F 14.7 °F 1018.8 in NNE 8.7 mph 8.7 mph 65 % 0.0 in
11:22 21.4 °F 14.3 °F 1018.8 in NNE 7.4 mph 7.4 mph 64 % 0.0 in
11:27 21.7 °F 14.8 °F 1018.8 in ESE 3.9 mph 3.9 mph 65 % 0.0 in
11:32 22.0 °F 14.1 °F 1018.8 in SSE 2.3 mph 4.2 mph 61 % 0.0 in
11:42 22.8 °F 15.4 °F 1018.8 in North 1.9 mph 1.9 mph 63 % 0.0 in
11:47 22.7 °F 15.1 °F 1018.8 in ENE 7.4 mph 7.4 mph 62 % 0.0 in
11:52 22.4 °F 14.5 °F 1018.8 in ENE 7.4 mph 7.4 mph 61 % 0.0 in
11:57 22.6 °F 14.9 °F 1018.8 in ENE 7.4 mph 7.4 mph 62 % 0.0 in
12:02 22.5 °F 14.6 °F 1018.8 in NE 3.7 mph 5.0 mph 61 % 0.0 in
12:07 22.8 °F 14.9 °F 1018.8 in WSW 3.9 mph 3.9 mph 61 % 0.0 in
12:12 23.3 °F 15.3 °F 1018.8 in NNW 3.7 mph 3.7 mph 61 % 0.0 in
12:17 23.8 °F 15.6 °F 1018.8 in WNW 5.8 mph 5.8 mph 60 % 0.0 in
12:22 23.6 °F 15.4 °F 1018.8 in ESE 7.9 mph 7.9 mph 60 % 0.0 in
12:27 23.6 °F 15.1 °F 1018.8 in West 4.7 mph 4.7 mph 59 % 0.0 in
12:32 23.4 °F 14.9 °F 1018.8 in North 5.6 mph 5.6 mph 59 % 0.0 in
12:37 23.6 °F 15.1 °F 1018.8 in SW 6.1 mph 6.1 mph 59 % 0.0 in
12:42 23.8 °F 15.1 °F 1018.8 in WSW 7.4 mph 7.4 mph 58 % 0.0 in
12:47 24.1 °F 15.1 °F 1017.8 in SSE 3.7 mph 3.9 mph 57 % 0.0 in
12:52 24.5 °F 14.9 °F 1017.8 in SE 5.8 mph 5.8 mph 55 % 0.0 in
12:57 24.6 °F 15.2 °F 1017.8 in SW 5.6 mph 5.6 mph 56 % 0.0 in
13:02 24.6 °F 14.9 °F 1017.8 in Calm     55 % 0.0 in
13:07 25.0 °F 14.8 °F 1017.8 in South 3.7 mph 3.7 mph 53 % 0.0 in
13:12 25.4 °F 15.1 °F 1017.8 in SSE 5.6 mph 5.6 mph 53 % 0.0 in
13:17 25.5 °F 15.5 °F 1017.8 in NW 7.4 mph 7.4 mph 54 % 0.0 in
13:22 25.0 °F 14.4 °F 1017.8 in NNE 5.6 mph 5.6 mph 52 % 0.0 in
13:27 25.0 °F 14.4 °F 1017.8 in NE 7.4 mph 7.4 mph 52 % 0.0 in
13:32 24.8 °F 14.6 °F 1017.8 in ENE 5.8 mph 5.8 mph 53 % 0.0 in
13:37 24.8 °F 14.3 °F 1017.8 in SE 7.4 mph   52 % 0.0 in
13:42 25.6 °F 15.0 °F 1017.8 in South 3.7 mph 3.7 mph 52 % 0.0 in
13:47 25.1 °F 13.3 °F 1017.8 in SSE 7.4 mph 7.4 mph 48 % 0.0 in
13:52 25.1 °F 13.6 °F 1017.8 in ESE 3.7 mph 3.7 mph 49 % 0.0 in
13:57 25.1 °F 13.6 °F 1017.8 in NNE 5.6 mph 5.6 mph 49 % 0.0 in
14:02 25.3 °F 14.1 °F 1017.8 in NW 7.4 mph 7.4 mph 50 % 0.0 in
14:07 25.6 °F 14.4 °F 1017.8 in SW 7.4 mph 7.4 mph 50 % 0.0 in
14:12 26.2 °F 14.9 °F 1017.8 in WSW 8.7 mph 8.7 mph 50 % 0.0 in
14:17 26.4 °F 14.8 °F 1016.8 in South 7.4 mph 7.4 mph 49 % 0.0 in
14:27 26.6 °F 14.3 °F 1016.8 in NW 7.4 mph 7.4 mph 47 % 0.0 in
14:32 26.7 °F 14.1 °F 1017.8 in East 5.6 mph 5.6 mph 46 % 0.0 in
14:37 26.4 °F 14.2 °F 1017.8 in South 3.7 mph 3.7 mph 47 % 0.0 in
14:42 27.2 °F 14.2 °F 1017.8 in SSE 4.7 mph 4.7 mph 45 % 0.0 in
14:52 27.1 °F 14.2 °F 1017.8 in SW 9.3 mph 9.3 mph 45 % 0.0 in
14:53 27.0 °F 13.7 °F 1017.8 in East 7.4 mph 7.4 mph 44 % 0.0 in
14:58 27.3 °F 13.6 °F 1017.8 in NE 5.6 mph 5.6 mph 43 % 0.0 in
15:03 27.9 °F 14.5 °F 1017.8 in NNW 7.4 mph 7.4 mph 44 % 0.0 in
15:08 28.0 °F 14.6 °F 1017.8 in SW 4.7 mph 4.7 mph 44 % 0.0 in
15:13 27.6 °F 14.2 °F 1017.8 in WSW 9.3 mph 9.3 mph 44 % 0.0 in
15:23 28.1 °F 14.0 °F 1017.8 in NE 4.7 mph 4.7 mph 42 % 0.0 in
15:28 28.0 °F 13.5 °F 1017.8 in ESE 4.7 mph 4.7 mph 41 % 0.0 in
15:33 27.4 °F 13.0 °F 1017.8 in ENE 9.3 mph 9.3 mph 41 % 0.0 in
15:38 26.5 °F 13.9 °F 1017.8 in ESE 14.5 mph 14.5 mph 46 % 0.0 in
15:43 25.8 °F 14.6 °F 1017.8 in East 13.0 mph 13.0 mph 50 % 0.0 in
15:48 25.3 °F 14.4 °F 1017.8 in East 13.0 mph 13.0 mph 51 % 0.0 in
15:53 25.3 °F 14.7 °F 1017.8 in ESE 14.8 mph 14.8 mph 52 % 0.0 in
15:58 25.1 °F 14.8 °F 1017.8 in SE 16.7 mph 16.7 mph 53 % 0.0 in
16:03 24.8 °F 15.4 °F 1017.8 in East 14.0 mph 14.0 mph 56 % 0.0 in
16:08 24.8 °F 15.7 °F 1017.8 in ESE 18.5 mph 18.5 mph 57 % 0.0 in
16:13 24.5 °F 15.7 °F 1017.8 in SSE 16.7 mph 16.7 mph 58 % 0.0 in
16:18 24.3 °F 15.8 °F 1017.8 in East 20.4 mph 20.4 mph 59 % 0.0 in
16:23 24.1 °F 15.8 °F 1017.8 in SE 14.8 mph 14.8 mph 60 % 0.0 in
16:28 24.1 °F 15.8 °F 1016.8 in SE 16.7 mph 16.7 mph 60 % 0.0 in
16:33 24.0 °F 15.8 °F 1016.8 in ESE 15.6 mph 15.6 mph 60 % 0.0 in
16:38 24.2 °F 15.9 °F 1016.8 in SSE 7.4 mph 7.4 mph 60 % 0.0 in
16:43 23.8 °F 16.1 °F 1017.8 in East 13.0 mph 13.0 mph 62 % 0.0 in
16:48 23.8 °F 16.3 °F 1017.8 in ESE 13.0 mph 13.0 mph 63 % 0.0 in
16:53 23.7 °F 16.5 °F 1017.8 in ESE 14.8 mph 14.8 mph 64 % 0.0 in
16:58 23.6 °F 16.6 °F 1017.8 in ENE 11.1 mph 11.1 mph 65 % 0.0 in
17:03 23.6 °F 16.6 °F 1017.8 in ESE 9.3 mph 9.3 mph 65 % 0.0 in
17:08 23.8 °F 16.8 °F 1017.8 in ENE 8.7 mph 8.7 mph 65 % 0.0 in
17:13 23.8 °F 16.6 °F 1017.8 in ENE 7.4 mph 7.4 mph 64 % 0.0 in
17:18 23.9 °F 16.7 °F 1017.8 in ESE 9.3 mph 9.3 mph 64 % 0.0 in
17:23 23.8 °F 16.8 °F 1017.8 in East 14.8 mph 14.8 mph 65 % 0.0 in
17:33 23.8 °F 16.8 °F 1016.8 in ESE 7.4 mph 7.4 mph 65 % 0.0 in
17:38 23.7 °F 16.9 °F 1016.8 in East 14.8 mph 14.8 mph 66 % 0.0 in
17:43 23.6 °F 16.9 °F 1016.8 in ENE 7.4 mph 7.4 mph 66 % 0.0 in
17:48 23.5 °F 16.8 °F 1016.8 in East 9.3 mph 9.3 mph 66 % 0.0 in
17:53 23.4 °F 16.9 °F 1016.8 in NE 9.3 mph 9.3 mph 67 % 0.0 in
17:58 23.3 °F 16.8 °F 1016.8 in ESE 9.3 mph 9.3 mph 67 % 0.0 in
18:03 23.3 °F 17.1 °F 1016.8 in ENE 7.4 mph 7.4 mph 68 % 0.0 in
18:08 23.1 °F 17.1 °F 1016.8 in ENE 11.1 mph 11.1 mph 69 % 0.0 in
18:13 22.9 °F 16.9 °F 1017.8 in ESE 13.0 mph 13.0 mph 69 % 0.0 in
18:18 22.7 °F 16.7 °F 1017.8 in ENE 9.3 mph 9.3 mph 69 % 0.0 in
18:24 22.7 °F 16.9 °F 1017.8 in ESE 9.3 mph 9.3 mph 70 % 0.0 in
18:34 22.5 °F 16.8 °F 1016.8 in NNE 7.4 mph 7.4 mph 70 % 0.0 in
18:39 22.5 °F 16.8 °F 1016.8 in East 13.0 mph 13.0 mph 70 % 0.0 in
18:44 22.4 °F 16.9 °F 1017.8 in ENE 6.4 mph 6.4 mph 71 % 0.0 in
18:49 22.2 °F 16.7 °F 1017.8 in ENE 7.4 mph 7.4 mph 71 % 0.0 in
18:54 22.2 °F 16.7 °F 1017.8 in East 9.7 mph 9.7 mph 71 % 0.0 in
18:59 22.1 °F 16.6 °F 1017.8 in East 7.4 mph 7.4 mph 71 % 0.0 in
19:04 22.0 °F 16.5 °F 1017.8 in ESE 9.3 mph 9.3 mph 71 % 0.0 in
19:09 21.9 °F 16.6 °F 1017.8 in East 5.6 mph 5.6 mph 72 % 0.0 in
19:14 21.8 °F 16.5 °F 1017.8 in ESE 7.4 mph 7.4 mph 72 % 0.0 in
19:19 21.7 °F 16.4 °F 1017.8 in ESE 7.4 mph 7.4 mph 72 % 0.0 in
19:24 21.6 °F 16.3 °F 1017.8 in ENE 7.4 mph 7.4 mph 72 % 0.0 in
19:29 21.5 °F 16.2 °F 1017.8 in ESE 7.9 mph 7.9 mph 72 % 0.0 in
19:34 21.4 °F 16.2 °F 1017.8 in ESE 7.4 mph 7.4 mph 72 % 0.0 in
19:39 21.3 °F 16.1 °F 1017.8 in ESE 7.4 mph 7.4 mph 72 % 0.0 in
19:44 21.2 °F 15.9 °F 1017.8 in SE 7.4 mph 7.4 mph 72 % 0.0 in
19:49 21.1 °F 15.8 °F 1017.8 in NE 7.6 mph 7.6 mph 72 % 0.0 in
19:54 21.0 °F 16.0 °F 1017.8 in ENE 5.6 mph 5.6 mph 73 % 0.0 in
19:59 21.0 °F 16.0 °F 1017.8 in NNE 5.6 mph 5.6 mph 73 % 0.0 in
20:04 20.9 °F 15.9 °F 1017.8 in East 6.9 mph 6.9 mph 73 % 0.0 in
20:09 20.8 °F 15.8 °F 1017.8 in ENE 5.6 mph 5.6 mph 73 % 0.0 in
20:14 20.7 °F 15.9 °F 1017.8 in ENE 7.4 mph 7.4 mph 74 % 0.0 in
20:19 20.7 °F 15.9 °F 1017.8 in ESE 5.8 mph 5.8 mph 74 % 0.0 in
20:24 20.6 °F 15.8 °F 1017.8 in ENE 3.2 mph 3.5 mph 74 % 0.0 in
20:29 20.6 °F 16.0 °F 1017.8 in ENE 6.9 mph 6.9 mph 75 % 0.0 in
20:34 20.5 °F 15.9 °F 1017.8 in ENE 3.7 mph 3.7 mph 75 % 0.0 in
20:39 20.4 °F 15.8 °F 1017.8 in North 5.6 mph 5.6 mph 75 % 0.0 in
20:44 20.4 °F 16.0 °F 1017.8 in NE 7.4 mph 7.4 mph 76 % 0.0 in
20:49 20.4 °F 16.0 °F 1017.8 in ENE 7.4 mph 7.4 mph 76 % 0.0 in
20:54 20.3 °F 15.9 °F 1017.8 in East 5.6 mph 5.6 mph 76 % 0.0 in
20:58 20.2 °F 16.1 °F 1017.8 in ENE 9.3 mph 9.3 mph 77 % 0.0 in
21:03 20.2 °F 16.1 °F 1017.8 in ESE 3.7 mph 3.7 mph 77 % 0.0 in
21:08 20.1 °F 16.2 °F 1017.8 in SE 5.6 mph 5.6 mph 78 % 0.0 in
21:13 20.1 °F 16.2 °F 1017.8 in ESE 4.2 mph 4.2 mph 78 % 0.0 in
21:18 20.0 °F 16.2 °F 1017.8 in ESE 7.4 mph 7.4 mph 79 % 0.0 in
21:23 20.0 °F 16.2 °F 1017.8 in East 7.4 mph 7.4 mph 79 % 0.0 in
21:28 19.9 °F 16.2 °F 1017.8 in ESE 4.2 mph 4.2 mph 79 % 0.0 in
21:33 19.9 °F 16.2 °F 1017.8 in East 1.9 mph   79 % 0.0 in
21:38 19.8 °F 15.8 °F 1017.8 in ENE 3.7 mph 3.7 mph 78 % 0.0 in
21:43 19.7 °F 15.9 °F 1017.8 in NE 4.7 mph 4.7 mph 79 % 0.0 in
21:48 19.6 °F 15.8 °F 1018.8 in ESE 3.7 mph 3.7 mph 79 % 0.0 in
21:53 19.6 °F 15.8 °F 1018.8 in East 5.6 mph 5.6 mph 79 % 0.0 in
21:58 19.6 °F 15.8 °F 1018.8 in Calm     79 % 0.0 in
22:03 19.5 °F 15.8 °F 1018.8 in SSW 1.9 mph 1.9 mph 79 % 0.0 in
22:08 19.2 °F 15.3 °F 1018.8 in SW 3.7 mph 3.7 mph 78 % 0.0 in
22:13 19.1 °F 15.2 °F 1018.8 in SW 3.7 mph 3.7 mph 78 % 0.0 in
22:18 19.0 °F 15.1 °F 1018.8 in SW 3.7 mph 3.7 mph 78 % 0.0 in
22:23 18.9 °F 15.4 °F 1018.8 in Calm     80 % 0.0 in
22:28 18.9 °F 15.4 °F 1018.8 in Calm     80 % 0.0 in
22:33 18.8 °F 15.3 °F 1018.8 in SW 2.6 mph   80 % 0.0 in
22:38 18.8 °F 15.3 °F 1018.8 in SW 3.7 mph 3.7 mph 80 % 0.0 in
22:43 18.8 °F 15.3 °F 1018.8 in Calm     80 % 0.0 in
22:48 18.8 °F 15.3 °F 1018.8 in SW 3.7 mph 3.7 mph 80 % 0.0 in
22:53 18.8 °F 15.4 °F 1018.8 in Calm     81 % 0.0 in
22:58 18.7 °F 15.4 °F 1018.8 in Calm     81 % 0.0 in
23:03 18.7 °F 15.4 °F 1018.8 in Calm     81 % 0.0 in
23:08 18.6 °F 15.3 °F 1018.8 in Calm     81 % 0.0 in
23:13 18.6 °F 15.3 °F 1018.8 in Calm     81 % 0.0 in
23:18 18.5 °F 15.2 °F 1018.8 in Calm     81 % 0.0 in
23:23 18.5 °F 15.2 °F 1018.8 in Calm     81 % 0.0 in
23:28 18.4 °F 15.1 °F 1018.8 in Calm     81 % 0.0 in
23:33 18.5 °F 15.2 °F 1018.8 in Calm     81 % 0.0 in
23:38 18.5 °F 15.2 °F 1018.8 in Calm     81 % 0.0 in
23:43 18.5 °F 15.2 °F 1019.9 in Calm     81 % 0.0 in
23:53 18.4 °F 15.1 °F 1019.9 in Calm     81 % 0.0 in
23:58 18.4 °F 15.3 °F 1019.9 in Calm     82 % 0.0 in
Meteo Sesrovires
Elogis d' Weather Underground - 4 mb

Guio original per  Jim McMurry - jmcmurry@mwt.net Adaptat per a la plantilla per  Wim van der Kuil - Leuven-Template.eu

Trobareu la nostra informacio del temps tambe a:

Weather Underground

AWEKAS